sensor_id;sensor_type;location;lat;lon;timestamp;P1;durP1;ratioP1;P2;durP2;ratioP2
9160;SDS011;4615;51.340;8.288;2023-12-14T00:00:03;9.70;;;8.05;;
9160;SDS011;4615;51.340;8.288;2023-12-14T00:02:30;9.50;;;7.40;;
9160;SDS011;4615;51.340;8.288;2023-12-14T00:04:58;9.13;;;7.60;;
9160;SDS011;4615;51.340;8.288;2023-12-14T00:07:24;10.43;;;7.28;;
9160;SDS011;4615;51.340;8.288;2023-12-14T00:09:50;8.30;;;7.40;;
9160;SDS011;4615;51.340;8.288;2023-12-14T00:12:17;8.60;;;7.63;;
9160;SDS011;4615;51.340;8.288;2023-12-14T00:14:43;8.45;;;7.35;;
9160;SDS011;4615;51.340;8.288;2023-12-14T00:17:09;7.40;;;6.70;;
9160;SDS011;4615;51.340;8.288;2023-12-14T00:19:36;8.25;;;7.38;;
9160;SDS011;4615;51.340;8.288;2023-12-14T00:22:03;8.35;;;7.20;;
9160;SDS011;4615;51.340;8.288;2023-12-14T00:24:30;8.40;;;7.20;;
9160;SDS011;4615;51.340;8.288;2023-12-14T00:26:56;8.07;;;7.38;;
9160;SDS011;4615;51.340;8.288;2023-12-14T00:29:22;8.65;;;7.75;;
9160;SDS011;4615;51.340;8.288;2023-12-14T00:31:49;7.13;;;6.43;;
9160;SDS011;4615;51.340;8.288;2023-12-14T00:34:15;7.40;;;6.05;;
9160;SDS011;4615;51.340;8.288;2023-12-14T00:36:41;6.97;;;6.37;;
9160;SDS011;4615;51.340;8.288;2023-12-14T00:39:09;6.80;;;6.20;;
9160;SDS011;4615;51.340;8.288;2023-12-14T00:41:36;7.05;;;6.35;;
9160;SDS011;4615;51.340;8.288;2023-12-14T00:44:02;7.30;;;6.40;;
9160;SDS011;4615;51.340;8.288;2023-12-14T00:46:28;7.55;;;6.60;;
9160;SDS011;4615;51.340;8.288;2023-12-14T00:48:55;9.85;;;8.80;;
9160;SDS011;4615;51.340;8.288;2023-12-14T00:51:21;10.13;;;9.07;;
9160;SDS011;4615;51.340;8.288;2023-12-14T00:53:47;10.05;;;8.32;;
9160;SDS011;4615;51.340;8.288;2023-12-14T00:56:15;7.90;;;7.20;;
9160;SDS011;4615;51.340;8.288;2023-12-14T00:58:41;9.50;;;7.77;;
9160;SDS011;4615;51.340;8.288;2023-12-14T01:01:08;11.85;;;10.10;;
9160;SDS011;4615;51.340;8.288;2023-12-14T01:03:34;10.18;;;9.18;;
9160;SDS011;4615;51.340;8.288;2023-12-14T01:06:00;9.32;;;7.60;;
9160;SDS011;4615;51.340;8.288;2023-12-14T01:08:27;12.40;;;9.77;;
9160;SDS011;4615;51.340;8.288;2023-12-14T01:10:53;12.25;;;8.77;;
9160;SDS011;4615;51.340;8.288;2023-12-14T01:13:21;8.82;;;6.28;;
9160;SDS011;4615;51.340;8.288;2023-12-14T01:15:47;8.02;;;7.20;;
9160;SDS011;4615;51.340;8.288;2023-12-14T01:18:14;7.80;;;7.00;;
9160;SDS011;4615;51.340;8.288;2023-12-14T01:20:40;8.45;;;7.55;;
9160;SDS011;4615;51.340;8.288;2023-12-14T01:23:06;8.55;;;7.70;;
9160;SDS011;4615;51.340;8.288;2023-12-14T01:25:34;9.75;;;8.20;;
9160;SDS011;4615;51.340;8.288;2023-12-14T01:28:00;9.00;;;8.10;;
9160;SDS011;4615;51.340;8.288;2023-12-14T01:30:28;16.02;;;14.20;;
9160;SDS011;4615;51.340;8.288;2023-12-14T01:32:54;15.50;;;13.15;;
9160;SDS011;4615;51.340;8.288;2023-12-14T01:35:21;12.95;;;11.43;;
9160;SDS011;4615;51.340;8.288;2023-12-14T01:37:47;14.38;;;12.25;;
9160;SDS011;4615;51.340;8.288;2023-12-14T01:40:14;13.53;;;11.93;;
9160;SDS011;4615;51.340;8.288;2023-12-14T01:42:42;13.52;;;12.13;;
9160;SDS011;4615;51.340;8.288;2023-12-14T01:45:08;11.15;;;9.98;;
9160;SDS011;4615;51.340;8.288;2023-12-14T01:47:36;15.80;;;12.10;;
9160;SDS011;4615;51.340;8.288;2023-12-14T01:50:03;20.03;;;14.13;;
9160;SDS011;4615;51.340;8.288;2023-12-14T01:52:29;18.25;;;11.80;;
9160;SDS011;4615;51.340;8.288;2023-12-14T01:54:56;20.05;;;10.82;;
9160;SDS011;4615;51.340;8.288;2023-12-14T01:57:24;15.50;;;10.43;;
9160;SDS011;4615;51.340;8.288;2023-12-14T01:59:50;15.40;;;10.30;;
9160;SDS011;4615;51.340;8.288;2023-12-14T02:02:16;14.27;;;10.10;;
9160;SDS011;4615;51.340;8.288;2023-12-14T02:04:44;12.48;;;9.05;;
9160;SDS011;4615;51.340;8.288;2023-12-14T02:07:10;19.52;;;9.15;;
9160;SDS011;4615;51.340;8.288;2023-12-14T02:09:37;14.23;;;9.20;;
9160;SDS011;4615;51.340;8.288;2023-12-14T02:12:04;15.43;;;9.05;;
9160;SDS011;4615;51.340;8.288;2023-12-14T02:14:30;15.03;;;9.80;;
9160;SDS011;4615;51.340;8.288;2023-12-14T02:16:57;23.27;;;10.27;;
9160;SDS011;4615;51.340;8.288;2023-12-14T02:19:23;94.88;;;14.20;;
9160;SDS011;4615;51.340;8.288;2023-12-14T02:21:51;30.08;;;9.30;;
9160;SDS011;4615;51.340;8.288;2023-12-14T02:24:18;12.63;;;8.32;;
9160;SDS011;4615;51.340;8.288;2023-12-14T02:26:45;13.27;;;7.65;;
9160;SDS011;4615;51.340;8.288;2023-12-14T02:29:11;11.32;;;7.38;;
9160;SDS011;4615;51.340;8.288;2023-12-14T02:31:37;8.90;;;7.18;;
9160;SDS011;4615;51.340;8.288;2023-12-14T02:34:04;8.50;;;6.85;;
9160;SDS011;4615;51.340;8.288;2023-12-14T02:36:30;7.93;;;7.13;;
9160;SDS011;4615;51.340;8.288;2023-12-14T02:38:56;6.97;;;6.18;;
9160;SDS011;4615;51.340;8.288;2023-12-14T02:41:24;7.40;;;6.57;;
9160;SDS011;4615;51.340;8.288;2023-12-14T02:43:50;6.47;;;5.75;;
9160;SDS011;4615;51.340;8.288;2023-12-14T02:46:17;6.05;;;5.20;;
9160;SDS011;4615;51.340;8.288;2023-12-14T02:48:43;7.00;;;5.20;;
9160;SDS011;4615;51.340;8.288;2023-12-14T02:51:12;6.07;;;5.40;;
9160;SDS011;4615;51.340;8.288;2023-12-14T02:53:38;5.80;;;5.15;;
9160;SDS011;4615;51.340;8.288;2023-12-14T02:56:05;5.65;;;4.70;;
9160;SDS011;4615;51.340;8.288;2023-12-14T02:58:33;5.15;;;4.65;;
9160;SDS011;4615;51.340;8.288;2023-12-14T03:00:59;4.65;;;4.18;;
9160;SDS011;4615;51.340;8.288;2023-12-14T03:03:25;4.40;;;4.00;;
9160;SDS011;4615;51.340;8.288;2023-12-14T03:05:54;4.43;;;3.97;;
9160;SDS011;4615;51.340;8.288;2023-12-14T03:08:20;4.50;;;4.10;;
9160;SDS011;4615;51.340;8.288;2023-12-14T03:10:46;4.88;;;4.40;;
9160;SDS011;4615;51.340;8.288;2023-12-14T03:13:13;5.25;;;4.75;;
9160;SDS011;4615;51.340;8.288;2023-12-14T03:15:40;6.90;;;6.20;;
9160;SDS011;4615;51.340;8.288;2023-12-14T03:18:08;8.45;;;7.05;;
9160;SDS011;4615;51.340;8.288;2023-12-14T03:20:34;17.77;;;8.02;;
9160;SDS011;4615;51.340;8.288;2023-12-14T03:23:01;12.40;;;8.18;;
9160;SDS011;4615;51.340;8.288;2023-12-14T03:25:27;20.17;;;8.73;;
9160;SDS011;4615;51.340;8.288;2023-12-14T03:27:53;41.63;;;10.27;;
9160;SDS011;4615;51.340;8.288;2023-12-14T03:30:20;12.02;;;9.23;;
9160;SDS011;4615;51.340;8.288;2023-12-14T03:32:47;9.70;;;8.30;;
9160;SDS011;4615;51.340;8.288;2023-12-14T03:35:14;9.00;;;7.77;;
9160;SDS011;4615;51.340;8.288;2023-12-14T03:37:40;9.18;;;7.95;;
9160;SDS011;4615;51.340;8.288;2023-12-14T03:40:07;7.95;;;7.15;;
9160;SDS011;4615;51.340;8.288;2023-12-14T03:42:33;6.05;;;5.45;;
9160;SDS011;4615;51.340;8.288;2023-12-14T03:45:00;5.40;;;4.85;;
9160;SDS011;4615;51.340;8.288;2023-12-14T03:47:26;4.50;;;4.10;;
9160;SDS011;4615;51.340;8.288;2023-12-14T03:49:54;4.10;;;3.70;;
9160;SDS011;4615;51.340;8.288;2023-12-14T03:52:20;3.92;;;3.53;;
9160;SDS011;4615;51.340;8.288;2023-12-14T03:54:46;3.60;;;3.30;;
9160;SDS011;4615;51.340;8.288;2023-12-14T03:57:13;3.50;;;3.20;;
9160;SDS011;4615;51.340;8.288;2023-12-14T03:59:39;3.53;;;3.17;;
9160;SDS011;4615;51.340;8.288;2023-12-14T04:02:06;3.40;;;3.10;;
9160;SDS011;4615;51.340;8.288;2023-12-14T04:04:32;3.42;;;3.13;;
9160;SDS011;4615;51.340;8.288;2023-12-14T04:07:00;3.55;;;3.25;;
9160;SDS011;4615;51.340;8.288;2023-12-14T04:09:26;3.00;;;2.70;;
9160;SDS011;4615;51.340;8.288;2023-12-14T04:11:53;3.53;;;3.22;;
9160;SDS011;4615;51.340;8.288;2023-12-14T04:14:19;2.80;;;2.60;;
9160;SDS011;4615;51.340;8.288;2023-12-14T04:16:45;3.10;;;2.80;;
9160;SDS011;4615;51.340;8.288;2023-12-14T04:19:12;3.00;;;2.72;;
9160;SDS011;4615;51.340;8.288;2023-12-14T04:21:38;2.85;;;2.55;;
9160;SDS011;4615;51.340;8.288;2023-12-14T04:24:06;2.78;;;2.53;;
9160;SDS011;4615;51.340;8.288;2023-12-14T04:26:34;3.20;;;2.90;;
9160;SDS011;4615;51.340;8.288;2023-12-14T04:29:00;3.15;;;2.85;;
9160;SDS011;4615;51.340;8.288;2023-12-14T04:31:26;3.28;;;2.97;;
9160;SDS011;4615;51.340;8.288;2023-12-14T04:33:53;3.85;;;3.40;;
9160;SDS011;4615;51.340;8.288;2023-12-14T04:36:19;4.00;;;3.60;;
9160;SDS011;4615;51.340;8.288;2023-12-14T04:38:46;3.97;;;3.55;;
9160;SDS011;4615;51.340;8.288;2023-12-14T04:41:13;4.13;;;3.70;;
9160;SDS011;4615;51.340;8.288;2023-12-14T04:43:40;4.80;;;3.60;;
9160;SDS011;4615;51.340;8.288;2023-12-14T04:46:06;4.07;;;3.60;;
9160;SDS011;4615;51.340;8.288;2023-12-14T04:48:32;4.85;;;3.60;;
9160;SDS011;4615;51.340;8.288;2023-12-14T04:50:59;3.55;;;3.25;;
9160;SDS011;4615;51.340;8.288;2023-12-14T04:53:25;3.97;;;3.28;;
9160;SDS011;4615;51.340;8.288;2023-12-14T04:55:51;3.37;;;2.90;;
9160;SDS011;4615;51.340;8.288;2023-12-14T04:58:19;3.05;;;2.80;;
9160;SDS011;4615;51.340;8.288;2023-12-14T05:00:46;2.90;;;2.65;;
9160;SDS011;4615;51.340;8.288;2023-12-14T05:03:12;3.95;;;3.17;;
9160;SDS011;4615;51.340;8.288;2023-12-14T05:05:38;4.07;;;2.85;;
9160;SDS011;4615;51.340;8.288;2023-12-14T05:08:05;3.65;;;3.20;;
9160;SDS011;4615;51.340;8.288;2023-12-14T05:10:31;4.43;;;3.80;;
9160;SDS011;4615;51.340;8.288;2023-12-14T05:12:57;4.38;;;3.97;;
9160;SDS011;4615;51.340;8.288;2023-12-14T05:15:25;5.00;;;3.80;;
9160;SDS011;4615;51.340;8.288;2023-12-14T05:17:51;5.03;;;4.50;;
9160;SDS011;4615;51.340;8.288;2023-12-14T05:20:18;4.65;;;3.75;;
9160;SDS011;4615;51.340;8.288;2023-12-14T05:22:45;4.82;;;4.00;;
9160;SDS011;4615;51.340;8.288;2023-12-14T05:25:12;4.60;;;3.80;;
9160;SDS011;4615;51.340;8.288;2023-12-14T05:27:39;5.13;;;3.88;;
9160;SDS011;4615;51.340;8.288;2023-12-14T05:30:06;4.45;;;3.60;;
9160;SDS011;4615;51.340;8.288;2023-12-14T05:32:34;4.38;;;3.10;;
9160;SDS011;4615;51.340;8.288;2023-12-14T05:35:00;3.17;;;2.88;;
9160;SDS011;4615;51.340;8.288;2023-12-14T05:37:27;3.90;;;3.10;;
9160;SDS011;4615;51.340;8.288;2023-12-14T05:39:53;4.32;;;3.75;;
9160;SDS011;4615;51.340;8.288;2023-12-14T05:42:19;3.42;;;3.13;;
9160;SDS011;4615;51.340;8.288;2023-12-14T05:44:46;3.85;;;3.00;;
9160;SDS011;4615;51.340;8.288;2023-12-14T05:47:13;3.67;;;3.05;;
9160;SDS011;4615;51.340;8.288;2023-12-14T05:49:41;3.22;;;2.75;;
9160;SDS011;4615;51.340;8.288;2023-12-14T05:52:08;3.58;;;2.72;;
9160;SDS011;4615;51.340;8.288;2023-12-14T05:54:35;3.50;;;2.80;;
9160;SDS011;4615;51.340;8.288;2023-12-14T05:57:01;3.70;;;3.20;;
9160;SDS011;4615;51.340;8.288;2023-12-14T05:59:28;3.63;;;3.17;;
9160;SDS011;4615;51.340;8.288;2023-12-14T06:01:56;4.00;;;3.60;;
9160;SDS011;4615;51.340;8.288;2023-12-14T06:04:22;3.35;;;3.05;;
9160;SDS011;4615;51.340;8.288;2023-12-14T06:06:50;3.80;;;3.10;;
9160;SDS011;4615;51.340;8.288;2023-12-14T06:09:16;3.78;;;3.03;;
9160;SDS011;4615;51.340;8.288;2023-12-14T06:11:44;3.93;;;3.50;;
9160;SDS011;4615;51.340;8.288;2023-12-14T06:14:10;4.20;;;3.17;;
9160;SDS011;4615;51.340;8.288;2023-12-14T06:16:37;3.30;;;3.00;;
9160;SDS011;4615;51.340;8.288;2023-12-14T06:19:03;2.78;;;2.47;;
9160;SDS011;4615;51.340;8.288;2023-12-14T06:21:29;3.95;;;3.55;;
9160;SDS011;4615;51.340;8.288;2023-12-14T06:23:57;3.72;;;3.25;;
9160;SDS011;4615;51.340;8.288;2023-12-14T06:26:24;3.05;;;2.70;;
9160;SDS011;4615;51.340;8.288;2023-12-14T06:28:51;3.15;;;2.63;;
9160;SDS011;4615;51.340;8.288;2023-12-14T06:31:17;2.30;;;2.10;;
9160;SDS011;4615;51.340;8.288;2023-12-14T06:33:45;2.40;;;2.20;;
9160;SDS011;4615;51.340;8.288;2023-12-14T06:36:11;2.23;;;2.03;;
9160;SDS011;4615;51.340;8.288;2023-12-14T06:38:38;2.33;;;2.10;;
9160;SDS011;4615;51.340;8.288;2023-12-14T06:41:06;2.20;;;2.00;;
9160;SDS011;4615;51.340;8.288;2023-12-14T06:43:33;2.10;;;1.90;;
9160;SDS011;4615;51.340;8.288;2023-12-14T06:46:00;2.10;;;1.90;;
9160;SDS011;4615;51.340;8.288;2023-12-14T06:48:26;2.00;;;1.90;;
9160;SDS011;4615;51.340;8.288;2023-12-14T06:50:53;2.30;;;2.10;;
9160;SDS011;4615;51.340;8.288;2023-12-14T06:53:20;2.17;;;1.98;;
9160;SDS011;4615;51.340;8.288;2023-12-14T06:55:46;1.95;;;1.80;;
9160;SDS011;4615;51.340;8.288;2023-12-14T06:58:14;2.20;;;2.00;;
9160;SDS011;4615;51.340;8.288;2023-12-14T07:00:40;2.17;;;2.00;;
9160;SDS011;4615;51.340;8.288;2023-12-14T07:03:06;2.97;;;2.28;;
9160;SDS011;4615;51.340;8.288;2023-12-14T07:05:33;2.47;;;2.17;;
9160;SDS011;4615;51.340;8.288;2023-12-14T07:07:59;2.75;;;2.28;;
9160;SDS011;4615;51.340;8.288;2023-12-14T07:10:26;2.50;;;2.30;;
9160;SDS011;4615;51.340;8.288;2023-12-14T07:12:52;2.88;;;2.63;;
9160;SDS011;4615;51.340;8.288;2023-12-14T07:15:21;3.00;;;2.70;;
9160;SDS011;4615;51.340;8.288;2023-12-14T07:17:48;3.05;;;2.75;;
9160;SDS011;4615;51.340;8.288;2023-12-14T07:20:14;3.60;;;3.20;;
9160;SDS011;4615;51.340;8.288;2023-12-14T07:22:40;3.90;;;3.50;;
9160;SDS011;4615;51.340;8.288;2023-12-14T07:25:07;3.80;;;3.47;;
9160;SDS011;4615;51.340;8.288;2023-12-14T07:27:34;4.28;;;3.88;;
9160;SDS011;4615;51.340;8.288;2023-12-14T07:30:00;4.93;;;4.10;;
9160;SDS011;4615;51.340;8.288;2023-12-14T07:32:28;5.03;;;4.53;;
9160;SDS011;4615;51.340;8.288;2023-12-14T07:34:54;4.72;;;4.32;;
9160;SDS011;4615;51.340;8.288;2023-12-14T07:37:20;4.97;;;4.30;;
9160;SDS011;4615;51.340;8.288;2023-12-14T07:39:47;5.47;;;4.70;;
9160;SDS011;4615;51.340;8.288;2023-12-14T07:42:13;4.88;;;4.40;;
9160;SDS011;4615;51.340;8.288;2023-12-14T07:44:44;6.10;;;5.50;;
9160;SDS011;4615;51.340;8.288;2023-12-14T07:47:10;6.03;;;4.90;;
9160;SDS011;4615;51.340;8.288;2023-12-14T07:49:38;6.22;;;5.60;;
9160;SDS011;4615;51.340;8.288;2023-12-14T07:52:05;5.82;;;5.22;;
9160;SDS011;4615;51.340;8.288;2023-12-14T07:54:31;6.13;;;5.38;;
9160;SDS011;4615;51.340;8.288;2023-12-14T07:56:58;6.07;;;5.43;;
9160;SDS011;4615;51.340;8.288;2023-12-14T07:59:24;7.00;;;5.90;;
9160;SDS011;4615;51.340;8.288;2023-12-14T08:01:50;9.52;;;7.63;;
9160;SDS011;4615;51.340;8.288;2023-12-14T08:04:17;6.53;;;5.55;;
9160;SDS011;4615;51.340;8.288;2023-12-14T08:06:44;6.95;;;6.10;;
9160;SDS011;4615;51.340;8.288;2023-12-14T08:09:11;8.63;;;7.40;;
9160;SDS011;4615;51.340;8.288;2023-12-14T08:11:37;8.23;;;7.32;;
9160;SDS011;4615;51.340;8.288;2023-12-14T08:14:03;8.00;;;7.20;;
9160;SDS011;4615;51.340;8.288;2023-12-14T08:16:30;8.60;;;7.32;;
9160;SDS011;4615;51.340;8.288;2023-12-14T08:18:56;8.35;;;7.28;;
9160;SDS011;4615;51.340;8.288;2023-12-14T08:21:23;8.07;;;6.87;;
9160;SDS011;4615;51.340;8.288;2023-12-14T08:23:51;10.00;;;7.88;;
9160;SDS011;4615;51.340;8.288;2023-12-14T08:26:17;10.02;;;8.68;;
9160;SDS011;4615;51.340;8.288;2023-12-14T08:28:43;10.02;;;8.52;;
9160;SDS011;4615;51.340;8.288;2023-12-14T08:31:10;10.35;;;9.05;;
9160;SDS011;4615;51.340;8.288;2023-12-14T08:33:37;9.85;;;8.30;;
9160;SDS011;4615;51.340;8.288;2023-12-14T08:36:03;10.68;;;8.82;;
9160;SDS011;4615;51.340;8.288;2023-12-14T08:38:30;9.55;;;8.48;;
9160;SDS011;4615;51.340;8.288;2023-12-14T08:40:58;9.73;;;8.68;;
9160;SDS011;4615;51.340;8.288;2023-12-14T08:43:25;10.43;;;9.30;;
9160;SDS011;4615;51.340;8.288;2023-12-14T08:45:51;12.18;;;10.18;;
9160;SDS011;4615;51.340;8.288;2023-12-14T08:48:18;12.43;;;11.10;;
9160;SDS011;4615;51.340;8.288;2023-12-14T08:50:44;14.35;;;11.50;;
9160;SDS011;4615;51.340;8.288;2023-12-14T08:53:11;25.30;;;11.93;;
9160;SDS011;4615;51.340;8.288;2023-12-14T08:55:37;24.07;;;13.13;;
9160;SDS011;4615;51.340;8.288;2023-12-14T08:58:05;16.88;;;13.40;;
9160;SDS011;4615;51.340;8.288;2023-12-14T09:00:31;17.42;;;13.00;;
9160;SDS011;4615;51.340;8.288;2023-12-14T09:02:58;15.52;;;12.73;;
9160;SDS011;4615;51.340;8.288;2023-12-14T09:05:24;14.25;;;12.60;;
9160;SDS011;4615;51.340;8.288;2023-12-14T09:07:51;11.88;;;10.38;;
9160;SDS011;4615;51.340;8.288;2023-12-14T09:10:21;11.67;;;10.37;;
9160;SDS011;4615;51.340;8.288;2023-12-14T09:12:47;11.20;;;10.00;;
9160;SDS011;4615;51.340;8.288;2023-12-14T09:15:15;11.45;;;10.30;;
9160;SDS011;4615;51.340;8.288;2023-12-14T09:17:41;9.48;;;8.57;;
9160;SDS011;4615;51.340;8.288;2023-12-14T09:20:08;8.57;;;7.78;;
9160;SDS011;4615;51.340;8.288;2023-12-14T09:22:36;7.82;;;7.03;;
9160;SDS011;4615;51.340;8.288;2023-12-14T09:25:02;8.65;;;7.85;;
9160;SDS011;4615;51.340;8.288;2023-12-14T09:27:29;7.95;;;7.25;;
9160;SDS011;4615;51.340;8.288;2023-12-14T09:29:55;8.33;;;7.53;;
9160;SDS011;4615;51.340;8.288;2023-12-14T09:32:23;8.47;;;7.60;;
9160;SDS011;4615;51.340;8.288;2023-12-14T09:34:50;8.33;;;7.53;;
9160;SDS011;4615;51.340;8.288;2023-12-14T09:37:17;7.53;;;6.82;;
9160;SDS011;4615;51.340;8.288;2023-12-14T09:39:44;7.10;;;6.40;;
9160;SDS011;4615;51.340;8.288;2023-12-14T09:42:10;9.02;;;8.00;;
9160;SDS011;4615;51.340;8.288;2023-12-14T09:44:37;7.68;;;6.88;;
9160;SDS011;4615;51.340;8.288;2023-12-14T09:47:04;6.45;;;5.85;;
9160;SDS011;4615;51.340;8.288;2023-12-14T09:49:31;6.90;;;6.30;;
9160;SDS011;4615;51.340;8.288;2023-12-14T09:51:58;6.50;;;5.90;;
9160;SDS011;4615;51.340;8.288;2023-12-14T09:54:24;7.40;;;6.70;;
9160;SDS011;4615;51.340;8.288;2023-12-14T09:56:51;7.30;;;6.60;;
9160;SDS011;4615;51.340;8.288;2023-12-14T09:59:18;7.57;;;6.90;;
9160;SDS011;4615;51.340;8.288;2023-12-14T10:01:44;7.00;;;6.30;;
9160;SDS011;4615;51.340;8.288;2023-12-14T10:04:11;6.47;;;5.88;;
9160;SDS011;4615;51.340;8.288;2023-12-14T10:06:40;6.40;;;5.80;;
9160;SDS011;4615;51.340;8.288;2023-12-14T10:09:07;6.80;;;6.10;;
9160;SDS011;4615;51.340;8.288;2023-12-14T10:11:34;6.67;;;6.07;;
9160;SDS011;4615;51.340;8.288;2023-12-14T10:14:01;7.00;;;6.40;;
9160;SDS011;4615;51.340;8.288;2023-12-14T10:16:28;7.00;;;6.40;;
9160;SDS011;4615;51.340;8.288;2023-12-14T10:18:55;7.63;;;6.93;;
9160;SDS011;4615;51.340;8.288;2023-12-14T10:21:23;7.30;;;6.60;;
9160;SDS011;4615;51.340;8.288;2023-12-14T10:23:50;7.20;;;6.50;;
9160;SDS011;4615;51.340;8.288;2023-12-14T10:26:17;6.70;;;6.10;;
9160;SDS011;4615;51.340;8.288;2023-12-14T10:28:43;6.45;;;5.85;;
9160;SDS011;4615;51.340;8.288;2023-12-14T10:31:09;6.70;;;6.10;;
9160;SDS011;4615;51.340;8.288;2023-12-14T10:33:36;7.00;;;6.30;;
9160;SDS011;4615;51.340;8.288;2023-12-14T10:36:03;6.88;;;6.28;;
9160;SDS011;4615;51.340;8.288;2023-12-14T10:38:30;6.57;;;5.97;;
9160;SDS011;4615;51.340;8.288;2023-12-14T10:40:59;6.40;;;5.80;;
9160;SDS011;4615;51.340;8.288;2023-12-14T10:43:26;6.57;;;5.97;;
9160;SDS011;4615;51.340;8.288;2023-12-14T10:45:53;5.70;;;5.20;;
9160;SDS011;4615;51.340;8.288;2023-12-14T10:48:19;6.15;;;5.55;;
9160;SDS011;4615;51.340;8.288;2023-12-14T10:50:46;6.25;;;5.65;;
9160;SDS011;4615;51.340;8.288;2023-12-14T10:53:14;6.40;;;5.80;;
9160;SDS011;4615;51.340;8.288;2023-12-14T10:55:41;6.05;;;5.55;;
9160;SDS011;4615;51.340;8.288;2023-12-14T10:58:10;6.90;;;6.30;;
9160;SDS011;4615;51.340;8.288;2023-12-14T11:00:36;7.60;;;6.90;;
9160;SDS011;4615;51.340;8.288;2023-12-14T11:03:03;11.43;;;8.50;;
9160;SDS011;4615;51.340;8.288;2023-12-14T11:05:31;12.32;;;11.02;;
9160;SDS011;4615;51.340;8.288;2023-12-14T11:08:00;13.27;;;11.88;;
9160;SDS011;4615;51.340;8.288;2023-12-14T11:10:36;14.35;;;12.55;;
9160;SDS011;4615;51.340;8.288;2023-12-14T11:13:03;15.43;;;13.77;;
9160;SDS011;4615;51.340;8.288;2023-12-14T11:15:33;16.65;;;14.10;;
9160;SDS011;4615;51.340;8.288;2023-12-14T11:20:47;19.42;;;16.90;;
9160;SDS011;4615;51.340;8.288;2023-12-14T11:23:14;20.15;;;16.85;;
9160;SDS011;4615;51.340;8.288;2023-12-14T11:25:42;21.13;;;17.10;;
9160;SDS011;4615;51.340;8.288;2023-12-14T11:28:09;22.42;;;18.05;;
9160;SDS011;4615;51.340;8.288;2023-12-14T11:30:37;22.77;;;17.95;;
9160;SDS011;4615;51.340;8.288;2023-12-14T11:33:03;23.20;;;18.63;;
9160;SDS011;4615;51.340;8.288;2023-12-14T11:35:30;23.70;;;18.30;;
9160;SDS011;4615;51.340;8.288;2023-12-14T11:37:56;28.55;;;19.75;;
9160;SDS011;4615;51.340;8.288;2023-12-14T11:40:24;35.83;;;20.05;;
9160;SDS011;4615;51.340;8.288;2023-12-14T11:42:57;56.85;;;21.30;;
9160;SDS011;4615;51.340;8.288;2023-12-14T11:45:23;41.08;;;20.17;;
9160;SDS011;4615;51.340;8.288;2023-12-14T11:47:52;36.22;;;21.10;;
9160;SDS011;4615;51.340;8.288;2023-12-14T11:50:18;34.60;;;21.40;;
9160;SDS011;4615;51.340;8.288;2023-12-14T11:52:45;28.90;;;20.48;;
9160;SDS011;4615;51.340;8.288;2023-12-14T11:55:11;39.20;;;22.00;;
9160;SDS011;4615;51.340;8.288;2023-12-14T11:57:38;28.42;;;20.08;;
9160;SDS011;4615;51.340;8.288;2023-12-14T12:00:05;25.83;;;19.20;;
9160;SDS011;4615;51.340;8.288;2023-12-14T12:02:32;25.35;;;19.17;;
9160;SDS011;4615;51.340;8.288;2023-12-14T12:05:01;24.40;;;18.85;;
9160;SDS011;4615;51.340;8.288;2023-12-14T12:07:27;24.88;;;18.65;;
9160;SDS011;4615;51.340;8.288;2023-12-14T12:09:54;23.63;;;18.42;;
9160;SDS011;4615;51.340;8.288;2023-12-14T12:12:20;24.15;;;18.48;;
9160;SDS011;4615;51.340;8.288;2023-12-14T12:14:47;22.90;;;18.25;;
9160;SDS011;4615;51.340;8.288;2023-12-14T12:17:14;26.63;;;19.92;;
9160;SDS011;4615;51.340;8.288;2023-12-14T12:19:41;26.02;;;19.73;;
9160;SDS011;4615;51.340;8.288;2023-12-14T12:22:09;23.48;;;17.95;;
9160;SDS011;4615;51.340;8.288;2023-12-14T12:24:35;24.23;;;18.10;;
9160;SDS011;4615;51.340;8.288;2023-12-14T12:27:03;26.57;;;19.33;;
9160;SDS011;4615;51.340;8.288;2023-12-14T12:29:30;25.55;;;18.50;;
9160;SDS011;4615;51.340;8.288;2023-12-14T12:31:56;26.65;;;19.63;;
9160;SDS011;4615;51.340;8.288;2023-12-14T12:34:23;29.27;;;20.27;;
9160;SDS011;4615;51.340;8.288;2023-12-14T12:36:49;39.80;;;20.58;;
9160;SDS011;4615;51.340;8.288;2023-12-14T12:39:17;29.02;;;20.40;;
9160;SDS011;4615;51.340;8.288;2023-12-14T12:41:43;29.10;;;19.67;;
9160;SDS011;4615;51.340;8.288;2023-12-14T12:44:09;26.10;;;18.75;;
9160;SDS011;4615;51.340;8.288;2023-12-14T12:46:36;26.92;;;19.10;;
9160;SDS011;4615;51.340;8.288;2023-12-14T12:49:03;28.80;;;19.45;;
9160;SDS011;4615;51.340;8.288;2023-12-14T12:51:29;25.08;;;18.33;;
9160;SDS011;4615;51.340;8.288;2023-12-14T12:53:56;25.15;;;17.92;;
9160;SDS011;4615;51.340;8.288;2023-12-14T12:56:25;24.02;;;17.65;;
9160;SDS011;4615;51.340;8.288;2023-12-14T12:58:52;24.73;;;18.30;;
9160;SDS011;4615;51.340;8.288;2023-12-14T13:01:19;23.52;;;17.27;;
9160;SDS011;4615;51.340;8.288;2023-12-14T13:03:45;23.00;;;17.63;;
9160;SDS011;4615;51.340;8.288;2023-12-14T13:06:11;21.92;;;17.00;;
9160;SDS011;4615;51.340;8.288;2023-12-14T13:08:38;19.92;;;14.82;;
9160;SDS011;4615;51.340;8.288;2023-12-14T13:11:04;19.98;;;15.63;;
9160;SDS011;4615;51.340;8.288;2023-12-14T13:13:32;21.98;;;15.00;;
9160;SDS011;4615;51.340;8.288;2023-12-14T13:15:58;21.73;;;15.45;;
9160;SDS011;4615;51.340;8.288;2023-12-14T13:18:25;18.60;;;14.63;;
9160;SDS011;4615;51.340;8.288;2023-12-14T13:20:51;19.63;;;15.10;;
9160;SDS011;4615;51.340;8.288;2023-12-14T13:23:18;17.98;;;14.13;;
9160;SDS011;4615;51.340;8.288;2023-12-14T13:25:44;17.33;;;13.55;;
9160;SDS011;4615;51.340;8.288;2023-12-14T13:28:11;16.88;;;13.73;;
9160;SDS011;4615;51.340;8.288;2023-12-14T13:30:38;18.17;;;13.57;;
9160;SDS011;4615;51.340;8.288;2023-12-14T13:33:05;16.52;;;13.55;;
9160;SDS011;4615;51.340;8.288;2023-12-14T13:35:31;16.52;;;14.32;;
9160;SDS011;4615;51.340;8.288;2023-12-14T13:37:58;18.90;;;15.13;;
9160;SDS011;4615;51.340;8.288;2023-12-14T13:40:24;20.03;;;15.53;;
9160;SDS011;4615;51.340;8.288;2023-12-14T13:42:51;18.52;;;14.55;;
9160;SDS011;4615;51.340;8.288;2023-12-14T13:45:18;18.45;;;14.43;;
9160;SDS011;4615;51.340;8.288;2023-12-14T13:47:46;17.73;;;13.82;;
9160;SDS011;4615;51.340;8.288;2023-12-14T13:50:12;17.40;;;14.77;;
9160;SDS011;4615;51.340;8.288;2023-12-14T13:52:38;16.50;;;13.68;;
9160;SDS011;4615;51.340;8.288;2023-12-14T13:55:05;16.73;;;14.32;;
9160;SDS011;4615;51.340;8.288;2023-12-14T13:57:31;17.70;;;13.55;;
9160;SDS011;4615;51.340;8.288;2023-12-14T13:59:58;17.58;;;14.18;;
9160;SDS011;4615;51.340;8.288;2023-12-14T14:02:24;16.13;;;13.10;;
9160;SDS011;4615;51.340;8.288;2023-12-14T14:04:55;17.10;;;13.82;;
9160;SDS011;4615;51.340;8.288;2023-12-14T14:07:21;17.77;;;14.18;;
9160;SDS011;4615;51.340;8.288;2023-12-14T14:09:48;16.90;;;13.68;;
9160;SDS011;4615;51.340;8.288;2023-12-14T14:12:14;14.65;;;12.98;;
9160;SDS011;4615;51.340;8.288;2023-12-14T14:14:40;16.10;;;13.07;;
9160;SDS011;4615;51.340;8.288;2023-12-14T14:17:07;15.32;;;13.38;;
9160;SDS011;4615;51.340;8.288;2023-12-14T14:19:33;16.70;;;13.02;;
9160;SDS011;4615;51.340;8.288;2023-12-14T14:22:01;16.90;;;13.13;;
9160;SDS011;4615;51.340;8.288;2023-12-14T14:24:27;15.20;;;12.87;;
9160;SDS011;4615;51.340;8.288;2023-12-14T14:26:53;15.50;;;13.07;;
9160;SDS011;4615;51.340;8.288;2023-12-14T14:29:20;15.70;;;13.07;;
9160;SDS011;4615;51.340;8.288;2023-12-14T14:31:46;18.20;;;14.88;;
9160;SDS011;4615;51.340;8.288;2023-12-14T14:34:13;15.83;;;13.40;;
9160;SDS011;4615;51.340;8.288;2023-12-14T14:36:40;17.67;;;15.13;;
9160;SDS011;4615;51.340;8.288;2023-12-14T14:39:10;19.38;;;16.00;;
9160;SDS011;4615;51.340;8.288;2023-12-14T14:41:37;15.95;;;13.82;;
9160;SDS011;4615;51.340;8.288;2023-12-14T14:44:04;18.27;;;14.37;;
9160;SDS011;4615;51.340;8.288;2023-12-14T14:46:30;19.20;;;15.67;;
9160;SDS011;4615;51.340;8.288;2023-12-14T14:48:57;19.73;;;16.60;;
9160;SDS011;4615;51.340;8.288;2023-12-14T14:51:26;18.10;;;15.03;;
9160;SDS011;4615;51.340;8.288;2023-12-14T14:53:54;17.33;;;13.27;;
9160;SDS011;4615;51.340;8.288;2023-12-14T14:56:22;20.30;;;16.70;;
9160;SDS011;4615;51.340;8.288;2023-12-14T14:58:49;16.98;;;13.57;;
9160;SDS011;4615;51.340;8.288;2023-12-14T15:01:15;16.42;;;13.77;;
9160;SDS011;4615;51.340;8.288;2023-12-14T15:03:41;15.90;;;13.60;;